Time;durP1;ratioP1;P1;durP2;ratioP2;P2;SDS_P1;SDS_P2;PMS_P1;PMS_P2;Temp;Humidity;BMP_temperature;BMP_pressure;BME280_temperature;BME280_humidity;BME280_pressure;Samples;Min_cycle;Max_cycle;Signal;HPM_P1;HPM_P2
2023/01/26 00:00:31;;;;;;;52.63;17.45;;;;;;;;;;6349518;22;20346;-91
2023/01/26 00:03:03;;;;;;;61.00;16.08;;;;;;;;;;6315624;22;20075;-91
2023/01/26 00:05:31;;;;;;;54.47;16.13;;;;;;;;;;6291935;22;20015;-92
2023/01/26 00:07:59;;;;;;;51.63;15.75;;;;;;;;;;6319269;22;20015;-92
2023/01/26 00:10:27;;;;;;;52.40;17.25;;;;;;;;;;6292534;22;20091;-91
2023/01/26 00:12:55;;;;;;;49.30;16.00;;;;;;;;;;6308382;22;20023;-91
2023/01/26 00:15:23;;;;;;;54.15;17.27;;;;;;;;;;6319865;22;20022;-91
2023/01/26 00:17:51;;;;;;;47.60;16.05;;;;;;;;;;6306853;22;20506;-92
2023/01/26 00:20:20;;;;;;;48.20;14.80;;;;;;;;;;6323093;22;20067;-92
2023/01/26 00:22:49;;;;;;;53.13;16.40;;;;;;;;;;6267877;22;20426;-93
2023/01/26 00:25:18;;;;;;;53.78;16.88;;;;;;;;;;6293211;22;20075;-91
2023/01/26 00:27:51;;;;;;;48.85;15.52;;;;;;;;;;6323373;22;20064;-91
2023/01/26 00:30:20;;;;;;;58.22;18.15;;;;;;;;;;6259392;22;20083;-92
2023/01/26 00:32:47;;;;;;;45.63;15.75;;;;;;;;;;6318927;22;20014;-93
2023/01/26 00:35:15;;;;;;;54.22;15.50;;;;;;;;;;6346960;22;20400;-92
2023/01/26 00:37:43;;;;;;;50.35;15.65;;;;;;;;;;6320644;22;20060;-92
2023/01/26 00:40:15;;;;;;;52.15;15.25;;;;;;;;;;6324800;22;20046;-91
2023/01/26 00:42:47;;;;;;;53.67;16.60;;;;;;;;;;6323954;22;20320;-92
2023/01/26 00:45:15;;;;;;;43.75;14.80;;;;;;;;;;6328538;22;20086;-92
2023/01/26 00:48:07;;;;;;;47.75;15.93;;;;;;;;;;6308956;22;20443;-92
2023/01/26 00:50:35;;;;;;;46.75;16.02;;;;;;;;;;6325930;22;20067;-91
2023/01/26 00:53:10;;;;;;;56.53;16.48;;;;;;;;;;6328772;22;20083;-92
2023/01/26 00:55:39;;;;;;;53.35;16.58;;;;;;;;;;6327620;22;20022;-92
2023/01/26 00:58:31;;;;;;;47.75;14.77;;;;;;;;;;6355361;22;20019;-93
2023/01/26 01:01:23;;;;;;;51.03;15.02;;;;;;;;;;6356049;22;20099;-92
2023/01/26 01:03:52;;;;;;;49.75;15.30;;;;;;;;;;6297856;22;20023;-93
2023/01/26 01:06:21;;;;;;;51.47;16.20;;;;;;;;;;6319899;22;20014;-93
2023/01/26 01:08:49;;;;;;;46.78;14.93;;;;;;;;;;6348308;22;20021;-91
2023/01/26 01:11:17;;;;;;;47.95;14.10;;;;;;;;;;6322475;22;20049;-91
2023/01/26 01:13:45;;;;;;;43.30;14.05;;;;;;;;;;6349760;22;20098;-91
2023/01/26 01:16:18;;;;;;;52.80;16.30;;;;;;;;;;6319472;22;20029;-91
2023/01/26 01:18:45;;;;;;;58.00;15.10;;;;;;;;;;6320599;22;20098;-93
2023/01/26 01:21:17;;;;;;;50.92;14.02;;;;;;;;;;6286054;22;20023;-92
2023/01/26 01:23:45;;;;;;;52.67;15.30;;;;;;;;;;6319141;22;20011;-92
2023/01/26 01:26:14;;;;;;;47.90;14.10;;;;;;;;;;6320405;22;20022;-92
2023/01/26 01:31:35;;;;;;;50.25;15.32;;;;;;;;;;6316907;22;20082;-92
2023/01/26 01:34:03;;;;;;;49.05;15.23;;;;;;;;;;6289134;22;20022;-92
2023/01/26 01:36:31;;;;;;;47.65;14.38;;;;;;;;;;6296655;22;20026;-92
2023/01/26 01:39:00;;;;;;;50.08;14.50;;;;;;;;;;6320319;22;20462;-91
2023/01/26 01:41:27;;;;;;;42.80;13.30;;;;;;;;;;6294695;22;20018;-92
2023/01/26 01:44:17;;;;;;;46.40;14.38;;;;;;;;;;6319748;22;20029;-92
2023/01/26 01:46:52;;;;;;;47.50;13.52;;;;;;;;;;6282923;22;20105;-92
2023/01/26 01:49:31;;;;;;;45.42;14.05;;;;;;;;;;6309114;22;20107;-92
2023/01/26 01:52:08;;;;;;;46.20;14.05;;;;;;;;;;6285249;22;20041;-92
2023/01/26 01:54:43;;;;;;;40.35;13.45;;;;;;;;;;6323771;22;20022;-92
2023/01/26 01:57:26;;;;;;;45.25;15.13;;;;;;;;;;6288468;22;20101;-92
2023/01/26 02:00:22;;;;;;;40.92;13.13;;;;;;;;;;6285184;22;20056;-92
2023/01/26 02:03:13;;;;;;;41.78;12.85;;;;;;;;;;6321492;22;20080;-92
2023/01/26 02:05:50;;;;;;;42.53;13.65;;;;;;;;;;6283357;22;20022;-92
2023/01/26 02:08:29;;;;;;;38.20;13.15;;;;;;;;;;6308432;22;20127;-92
2023/01/26 02:11:01;;;;;;;37.50;12.77;;;;;;;;;;6320321;22;20604;-92
2023/01/26 02:13:31;;;;;;;39.97;11.95;;;;;;;;;;6319954;22;20018;-92
2023/01/26 02:15:59;;;;;;;44.28;14.02;;;;;;;;;;6319674;22;20135;-93
2023/01/26 02:18:51;;;;;;;44.78;13.25;;;;;;;;;;6263569;22;20072;-92
2023/01/26 02:21:21;;;;;;;46.35;12.90;;;;;;;;;;6283438;22;20355;-91
2023/01/26 02:24:20;;;;;;;32.88;12.45;;;;;;;;;;6345119;22;20022;-92
2023/01/26 02:26:54;;;;;;;43.60;13.52;;;;;;;;;;6285050;22;20022;-92
2023/01/26 02:29:22;;;;;;;40.40;14.15;;;;;;;;;;6345539;22;20505;-92
2023/01/26 02:31:56;;;;;;;36.80;12.40;;;;;;;;;;6309412;22;20019;-93
2023/01/26 02:34:27;;;;;;;39.75;13.27;;;;;;;;;;6283371;22;20317;-93
2023/01/26 02:36:59;;;;;;;37.33;11.68;;;;;;;;;;6320242;22;20110;-93
2023/01/26 02:39:44;;;;;;;39.10;12.60;;;;;;;;;;6319746;22;20018;-93
2023/01/26 02:45:23;;;;;;;40.15;13.93;;;;;;;;;;6319122;22;20013;-92
2023/01/26 02:47:51;;;;;;;47.13;13.43;;;;;;;;;;6282321;22;20011;-92
2023/01/26 02:50:19;;;;;;;41.65;12.85;;;;;;;;;;6283488;22;20037;-93
2023/01/26 02:52:47;;;;;;;37.97;13.45;;;;;;;;;;6283837;22;20084;-92
2023/01/26 02:55:44;;;;;;;39.55;12.00;;;;;;;;;;6294792;22;20018;-93
2023/01/26 02:58:11;;;;;;;41.95;12.93;;;;;;;;;;6346474;22;20018;-92
2023/01/26 03:00:41;;;;;;;41.58;13.07;;;;;;;;;;6320217;22;20025;-92
2023/01/26 03:03:25;;;;;;;35.72;11.02;;;;;;;;;;6283464;22;20015;-92
2023/01/26 03:05:54;;;;;;;33.20;11.35;;;;;;;;;;6294552;22;20014;-91
2023/01/26 03:08:27;;;;;;;44.95;11.90;;;;;;;;;;6282974;22;20021;-92
2023/01/26 03:10:56;;;;;;;36.70;12.93;;;;;;;;;;6282984;22;20886;-92
2023/01/26 03:13:23;;;;;;;36.45;12.68;;;;;;;;;;6319226;22;20010;-92
2023/01/26 03:16:17;;;;;;;37.00;11.25;;;;;;;;;;6308198;22;20740;-92
2023/01/26 03:27:47;;;;;;;36.00;11.65;;;;;;;;;;6319178;22;20668;-92
2023/01/26 03:30:18;;;;;;;38.40;12.73;;;;;;;;;;6293273;22;20018;-93
2023/01/26 03:32:47;;;;;;;38.67;12.93;;;;;;;;;;6282936;22;20022;-92
2023/01/26 03:35:21;;;;;;;37.03;11.80;;;;;;;;;;6345772;22;20076;-92
2023/01/26 03:37:53;;;;;;;34.63;11.80;;;;;;;;;;6292885;22;20018;-93
2023/01/26 03:57:59;;;;;;;33.13;11.90;;;;;;;;;;6194738;23;20017;-92
2023/01/26 04:00:51;;;;;;;34.90;11.68;;;;;;;;;;6194031;23;20350;-93
2023/01/26 04:09:01;;;;;;;29.98;9.88;;;;;;;;;;6194741;23;20021;-93
2023/01/26 04:11:33;;;;;;;30.77;10.82;;;;;;;;;;6185100;23;20059;-92
2023/01/26 04:22:44;;;;;;;28.45;10.30;;;;;;;;;;6319543;22;20022;-92
2023/01/26 04:25:37;;;;;;;32.10;11.68;;;;;;;;;;6307760;22;20027;-93
2023/01/26 04:28:11;;;;;;;34.08;12.13;;;;;;;;;;6285303;22;20042;-93
2023/01/26 04:30:45;;;;;;;30.02;10.90;;;;;;;;;;6319414;22;20014;-93
2023/01/26 04:33:13;;;;;;;30.17;9.73;;;;;;;;;;6320162;22;20015;-92
2023/01/26 04:36:07;;;;;;;29.83;9.82;;;;;;;;;;6257869;22;20474;-93
2023/01/26 04:38:45;;;;;;;30.27;10.23;;;;;;;;;;6260235;22;20019;-92
2023/01/26 04:41:19;;;;;;;30.35;10.80;;;;;;;;;;6318943;22;20010;-92
2023/01/26 04:44:01;;;;;;;31.30;10.88;;;;;;;;;;6318614;22;20029;-93
2023/01/26 04:46:29;;;;;;;29.40;10.07;;;;;;;;;;6344629;22;20015;-92
2023/01/26 04:48:57;;;;;;;29.65;10.50;;;;;;;;;;6318558;22;20011;-92
2023/01/26 04:54:17;;;;;;;28.38;9.23;;;;;;;;;;6318735;22;20018;-93
2023/01/26 04:56:45;;;;;;;32.03;10.88;;;;;;;;;;6293109;22;20022;-93
2023/01/26 04:59:13;;;;;;;33.10;9.88;;;;;;;;;;6294655;22;20077;-92
2023/01/26 05:01:42;;;;;;;29.45;10.73;;;;;;;;;;6282835;22;20026;-92
2023/01/26 05:04:39;;;;;;;;;;;;;;;;;;;;;
2023/01/26 05:07:43;;;;;;;26.70;9.23;;;;;;;;;;6309763;22;20014;-92
2023/01/26 05:10:17;;;;;;;30.25;10.20;;;;;;;;;;6282284;22;20015;-93
2023/01/26 05:12:55;;;;;;;30.17;9.85;;;;;;;;;;6348019;22;20089;-92
2023/01/26 05:15:46;;;;;;;31.77;11.00;;;;;;;;;;6320414;22;20026;-91
2023/01/26 05:18:23;;;;;;;30.60;9.43;;;;;;;;;;6283118;22;20034;-92
2023/01/26 05:21:15;;;;;;;24.58;9.05;;;;;;;;;;6325819;22;20319;-93
2023/01/26 05:23:47;;;;;;;29.17;9.40;;;;;;;;;;6259717;22;20102;-92
2023/01/26 05:29:33;;;;;;;25.42;9.02;;;;;;;;;;6320516;22;20019;-93
2023/01/26 05:32:01;;;;;;;27.35;9.65;;;;;;;;;;6320025;22;20064;-92
2023/01/26 05:34:29;;;;;;;28.92;8.80;;;;;;;;;;6294546;22;20022;-92
2023/01/26 05:36:57;;;;;;;25.80;8.85;;;;;;;;;;6294444;22;20019;-93
2023/01/26 05:39:25;;;;;;;25.90;8.73;;;;;;;;;;6282828;22;20011;-94
2023/01/26 05:41:56;;;;;;;26.45;8.98;;;;;;;;;;6294984;22;20026;-92
2023/01/26 05:44:57;;;;;;;24.15;8.95;;;;;;;;;;6203087;23;20025;-94
2023/01/26 05:47:29;;;;;;;25.42;9.38;;;;;;;;;;6195230;23;20484;-92
2023/01/26 05:49:57;;;;;;;25.42;8.50;;;;;;;;;;6160653;23;20027;-91
2023/01/26 05:52:31;;;;;;;23.58;7.78;;;;;;;;;;6160786;23;20020;-92
2023/01/26 05:54:59;;;;;;;21.83;7.72;;;;;;;;;;6221070;23;20024;-92
2023/01/26 05:57:33;;;;;;;26.83;8.38;;;;;;;;;;6161366;23;20031;-93
2023/01/26 06:00:27;;;;;;;23.75;7.10;;;;;;;;;;6196524;23;20012;-93
2023/01/26 06:03:21;;;;;;;20.38;7.28;;;;;;;;;;6220601;23;20048;-94
2023/01/26 06:05:55;;;;;;;24.67;7.97;;;;;;;;;;6161324;23;20020;-92
2023/01/26 06:08:35;;;;;;;22.20;7.25;;;;;;;;;;6195617;23;20119;-93
2023/01/26 06:11:27;;;;;;;17.95;6.15;;;;;;;;;;6201182;23;20016;-92
2023/01/26 06:14:30;;;;;;;20.65;6.88;;;;;;;;;;6196559;23;20027;-92
2023/01/26 06:16:57;;;;;;;17.00;6.57;;;;;;;;;;6220815;23;20027;-91
2023/01/26 06:19:51;;;;;;;20.42;7.00;;;;;;;;;;6208158;22;20018;-93
2023/01/26 06:22:19;;;;;;;19.95;7.53;;;;;;;;;;6293048;22;20093;-91
2023/01/26 06:24:49;;;;;;;18.67;7.78;;;;;;;;;;6293547;22;20068;-90
2023/01/26 06:27:21;;;;;;;20.85;7.35;;;;;;;;;;6318701;22;20140;-92
2023/01/26 06:29:51;;;;;;;24.08;8.00;;;;;;;;;;6317678;22;20455;-92
2023/01/26 06:32:19;;;;;;;17.38;7.57;;;;;;;;;;6255683;22;20026;-92
2023/01/26 06:34:55;;;;;;;22.02;7.57;;;;;;;;;;6318557;22;20034;-92
2023/01/26 06:37:25;;;;;;;24.38;6.97;;;;;;;;;;6256750;22;20018;-89
2023/01/26 06:39:58;;;;;;;22.35;8.43;;;;;;;;;;6293865;22;20462;-93
2023/01/26 06:42:25;;;;;;;27.98;9.10;;;;;;;;;;6291053;22;20025;-92
2023/01/26 06:44:57;;;;;;;22.13;7.85;;;;;;;;;;6325204;22;20010;-94
2023/01/26 06:47:25;;;;;;;23.85;8.75;;;;;;;;;;6312468;22;20015;-93
2023/01/26 06:49:55;;;;;;;21.13;7.30;;;;;;;;;;6311972;22;20068;-94
2023/01/26 06:52:30;;;;;;;20.10;6.28;;;;;;;;;;6272747;22;20084;-93
2023/01/26 06:55:45;;;;;;;19.92;6.95;;;;;;;;;;6316364;22;20002;-92
2023/01/26 06:58:44;;;;;;;20.13;7.63;;;;;;;;;;6226960;23;20032;-92
2023/01/26 07:01:40;;;;;;;18.83;7.50;;;;;;;;;;6186004;23;20016;-94
2023/01/26 07:08:05;;;;;;;23.00;7.90;;;;;;;;;;6134292;23;20080;-94
2023/01/26 07:10:57;;;;;;;18.70;6.75;;;;;;;;;;6117504;23;20021;-94
2023/01/26 07:13:34;;;;;;;22.27;6.85;;;;;;;;;;6141392;23;20033;-94
2023/01/26 07:16:15;;;;;;;20.15;7.55;;;;;;;;;;6153000;23;20032;-95
2023/01/26 07:18:58;;;;;;;22.90;7.28;;;;;;;;;;6121343;23;20033;-95
2023/01/26 07:21:26;;;;;;;19.55;7.45;;;;;;;;;;6145550;23;20024;-94
2023/01/26 07:23:55;;;;;;;18.88;6.97;;;;;;;;;;6121275;23;20026;-94
2023/01/26 07:26:50;;;;;;;24.77;7.70;;;;;;;;;;6142443;23;20021;-95
2023/01/26 07:29:41;;;;;;;21.05;8.00;;;;;;;;;;6119101;23;20056;-95
2023/01/26 07:32:09;;;;;;;21.77;7.38;;;;;;;;;;6172253;23;20017;-95
2023/01/26 07:34:47;;;;;;;19.58;7.55;;;;;;;;;;6183141;23;20040;-94
2023/01/26 07:37:15;;;;;;;18.65;8.13;;;;;;;;;;6203009;23;20024;-91
2023/01/26 07:40:08;;;;;;;18.77;6.38;;;;;;;;;;6189705;23;20405;-91
2023/01/26 07:42:35;;;;;;;18.25;7.65;;;;;;;;;;6196004;23;20051;-91
2023/01/26 07:45:07;;;;;;;19.25;7.20;;;;;;;;;;6197042;23;20021;-92
2023/01/26 07:47:36;;;;;;;21.00;7.05;;;;;;;;;;6195736;23;20028;-91
2023/01/26 07:50:10;;;;;;;29.88;6.68;;;;;;;;;;6197279;23;20021;-94
2023/01/26 07:52:37;;;;;;;22.40;7.60;;;;;;;;;;6203735;23;20392;-92
2023/01/26 07:55:06;;;;;;;22.23;7.88;;;;;;;;;;6143690;23;20152;-88
2023/01/26 07:57:40;;;;;;;18.45;6.82;;;;;;;;;;6202043;23;20043;-92
2023/01/26 08:00:15;;;;;;;16.02;7.28;;;;;;;;;;6146915;23;20017;-92
2023/01/26 08:02:43;;;;;;;17.70;6.45;;;;;;;;;;6202375;23;20503;-92
2023/01/26 08:05:13;;;;;;;18.92;7.38;;;;;;;;;;6202082;23;20024;-93
2023/01/26 08:07:41;;;;;;;18.45;6.63;;;;;;;;;;6174299;23;20021;-90
2023/01/26 08:10:11;;;;;;;24.20;7.78;;;;;;;;;;6191487;23;20020;-92
2023/01/26 08:12:39;;;;;;;21.13;7.78;;;;;;;;;;6204588;23;20396;-92
2023/01/26 08:15:08;;;;;;;18.02;6.93;;;;;;;;;;6180007;23;20100;-91
2023/01/26 08:17:41;;;;;;;19.48;7.25;;;;;;;;;;6172268;23;20020;-91
2023/01/26 08:20:14;;;;;;;18.25;6.85;;;;;;;;;;6147256;23;20111;-92
2023/01/26 08:22:41;;;;;;;18.63;7.75;;;;;;;;;;6206510;23;20100;-92
2023/01/26 08:25:09;;;;;;;19.25;7.07;;;;;;;;;;6192987;23;20020;-92
2023/01/26 08:27:37;;;;;;;20.45;6.85;;;;;;;;;;6204146;23;20040;-92
2023/01/26 08:30:06;;;;;;;23.70;8.15;;;;;;;;;;6144097;23;20024;-92
2023/01/26 08:32:33;;;;;;;23.90;7.25;;;;;;;;;;6201614;23;20519;-92
2023/01/26 08:35:02;;;;;;;27.27;8.52;;;;;;;;;;6192495;23;20028;-93
2023/01/26 08:37:29;;;;;;;20.02;7.05;;;;;;;;;;6199686;23;20044;-93
2023/01/26 08:39:57;;;;;;;21.50;6.95;;;;;;;;;;6199710;23;20099;-92
2023/01/26 08:42:25;;;;;;;22.30;7.35;;;;;;;;;;6140031;23;20051;-93
2023/01/26 08:45:17;;;;;;;21.40;7.28;;;;;;;;;;6169171;23;20012;-92
2023/01/26 08:47:52;;;;;;;21.45;7.18;;;;;;;;;;6165621;23;20356;-92
2023/01/26 08:50:24;;;;;;;20.85;6.65;;;;;;;;;;6171718;23;20028;-93
2023/01/26 08:52:54;;;;;;;21.10;6.88;;;;;;;;;;6200468;23;20020;-93
2023/01/26 08:55:21;;;;;;;20.05;7.18;;;;;;;;;;6204611;23;20459;-93
2023/01/26 08:57:53;;;;;;;15.05;6.40;;;;;;;;;;6139086;23;20079;-92
2023/01/26 09:00:22;;;;;;;24.20;7.50;;;;;;;;;;6197518;23;20021;-93
2023/01/26 09:02:56;;;;;;;16.23;5.68;;;;;;;;;;6182257;23;20020;-92
2023/01/26 09:05:35;;;;;;;19.67;7.10;;;;;;;;;;6157244;23;20043;-92
2023/01/26 09:08:04;;;;;;;19.95;6.70;;;;;;;;;;6158431;23;20107;-92
2023/01/26 09:10:39;;;;;;;22.00;7.28;;;;;;;;;;6196814;23;20043;-92
2023/01/26 09:13:38;;;;;;;20.02;7.18;;;;;;;;;;6203383;23;20412;-92
2023/01/26 09:16:18;;;;;;;17.15;6.68;;;;;;;;;;6147780;23;20031;-92
2023/01/26 09:18:49;;;;;;;16.48;5.82;;;;;;;;;;6211692;23;20016;-93
2023/01/26 09:21:18;;;;;;;20.02;6.03;;;;;;;;;;6177574;23;20412;-93
2023/01/26 09:23:45;;;;;;;15.65;5.07;;;;;;;;;;6150875;23;20021;-94
2023/01/26 09:26:13;;;;;;;16.08;5.38;;;;;;;;;;6198031;23;20052;-92
2023/01/26 09:28:41;;;;;;;16.48;5.53;;;;;;;;;;6197872;23;20025;-91
2023/01/26 09:31:10;;;;;;;13.15;5.43;;;;;;;;;;6189555;23;20088;-93
2023/01/26 09:33:43;;;;;;;14.70;5.43;;;;;;;;;;6169819;22;20443;-92
2023/01/26 09:36:12;;;;;;;14.18;5.53;;;;;;;;;;6258238;22;20030;-93
2023/01/26 09:38:41;;;;;;;15.05;5.47;;;;;;;;;;6295584;22;20007;-92
2023/01/26 09:41:09;;;;;;;13.07;4.70;;;;;;;;;;6296988;22;20033;-91
2023/01/26 09:43:49;;;;;;;14.25;5.25;;;;;;;;;;6309805;22;20094;-93
2023/01/26 09:46:53;;;;;;;10.43;4.65;;;;;;;;;;6301735;22;20029;-93
2023/01/26 09:50:00;;;;;;;10.23;4.28;;;;;;;;;;6288246;22;20015;-92
2023/01/26 09:52:58;;;;;;;12.63;4.50;;;;;;;;;;6290857;22;20021;-93
2023/01/26 09:55:37;;;;;;;14.30;4.55;;;;;;;;;;6286610;22;20018;-92
2023/01/26 09:58:28;;;;;;;11.98;4.45;;;;;;;;;;6311631;22;20022;-92
2023/01/26 10:01:29;;;;;;;12.85;4.05;;;;;;;;;;6286899;22;20022;-91
2023/01/26 10:04:23;;;;;;;13.38;4.45;;;;;;;;;;6318772;22;20015;-91
2023/01/26 10:07:28;;;;;;;12.13;4.43;;;;;;;;;;6306935;22;20018;-94
2023/01/26 10:10:05;;;;;;;11.98;4.40;;;;;;;;;;6284965;22;20014;-92
2023/01/26 10:12:53;;;;;;;13.02;5.07;;;;;;;;;;6330560;22;20038;-93
2023/01/26 10:15:42;;;;;;;13.45;4.35;;;;;;;;;;6256509;22;20002;-91
2023/01/26 10:18:46;;;;;;;15.18;5.43;;;;;;;;;;6301525;22;20087;-93
2023/01/26 10:21:46;;;;;;;13.98;5.75;;;;;;;;;;6244894;23;20004;-92
2023/01/26 10:24:23;;;;;;;17.48;6.13;;;;;;;;;;6216068;23;20044;-92
2023/01/26 10:26:57;;;;;;;13.77;5.10;;;;;;;;;;6216599;23;20027;-91
2023/01/26 10:29:36;;;;;;;13.30;5.10;;;;;;;;;;6192748;23;20595;-91
2023/01/26 10:32:17;;;;;;;12.43;5.18;;;;;;;;;;6213567;23;20020;-90
2023/01/26 10:34:54;;;;;;;18.33;5.55;;;;;;;;;;6216358;23;20039;-92
2023/01/26 10:37:30;;;;;;;17.95;6.45;;;;;;;;;;6251065;23;20051;-92
2023/01/26 10:40:44;;;;;;;18.17;5.82;;;;;;;;;;6241351;23;20027;-92
2023/01/26 10:43:26;;;;;;;21.15;6.55;;;;;;;;;;6219732;23;20148;-90
2023/01/26 10:46:08;;;;;;;19.88;6.35;;;;;;;;;;6192301;23;20031;-91
2023/01/26 10:48:52;;;;;;;15.98;6.07;;;;;;;;;;6216069;23;20051;-90
2023/01/26 10:51:34;;;;;;;21.52;6.88;;;;;;;;;;6227509;23;20024;-91
2023/01/26 10:54:33;;;;;;;20.63;6.07;;;;;;;;;;6229082;23;20023;-91
2023/01/26 10:57:32;;;;;;;20.08;6.32;;;;;;;;;;6242422;22;20018;-91
2023/01/26 11:00:32;;;;;;;17.13;6.03;;;;;;;;;;6287193;22;20015;-92
2023/01/26 11:03:31;;;;;;;22.17;5.95;;;;;;;;;;6286674;22;20021;-91
2023/01/26 11:06:26;;;;;;;19.65;5.70;;;;;;;;;;6287261;22;20025;-92
2023/01/26 11:09:29;;;;;;;25.98;7.65;;;;;;;;;;6320344;22;20007;-92
2023/01/26 11:12:21;;;;;;;19.85;7.10;;;;;;;;;;6310556;22;20014;-92
2023/01/26 11:15:04;;;;;;;23.65;7.07;;;;;;;;;;6286808;22;20082;-91
2023/01/26 11:18:03;;;;;;;20.77;7.22;;;;;;;;;;6308336;22;20019;-92
2023/01/26 11:21:05;;;;;;;21.50;7.65;;;;;;;;;;6311748;22;20019;-92
2023/01/26 11:24:44;;;;;;;20.13;6.65;;;;;;;;;;6319466;22;19998;-94
2023/01/26 11:28:20;;;;;;;25.20;7.28;;;;;;;;;;6310880;22;20061;-93
2023/01/26 11:31:47;;;;;;;17.70;6.85;;;;;;;;;;6276987;22;20011;-93
2023/01/26 11:34:45;;;;;;;25.45;7.10;;;;;;;;;;6305731;22;20015;-92
2023/01/26 11:37:36;;;;;;;36.00;7.80;;;;;;;;;;6274241;22;20443;-90
2023/01/26 11:40:19;;;;;;;27.83;8.43;;;;;;;;;;6300180;22;20016;-90
2023/01/26 11:43:17;;;;;;;19.27;7.63;;;;;;;;;;6249965;22;19999;-90
2023/01/26 11:46:01;;;;;;;21.88;7.82;;;;;;;;;;6285630;22;20022;-90
2023/01/26 11:48:48;;;;;;;25.27;7.72;;;;;;;;;;6249660;22;20182;-91
2023/01/26 11:51:31;;;;;;;23.02;7.13;;;;;;;;;;6250201;22;20025;-91
2023/01/26 11:54:26;;;;;;;20.50;6.40;;;;;;;;;;6275032;22;20419;-91
2023/01/26 11:57:17;;;;;;;22.90;7.15;;;;;;;;;;6250657;22;20027;-90
2023/01/26 11:59:58;;;;;;;23.83;7.47;;;;;;;;;;6306046;22;20013;-91
2023/01/26 12:02:31;;;;;;;31.98;7.50;;;;;;;;;;6341574;22;20021;-91
2023/01/26 12:05:16;;;;;;;20.58;7.43;;;;;;;;;;6306986;22;20041;-91
2023/01/26 12:08:03;;;;;;;27.95;8.30;;;;;;;;;;6283291;22;20019;-91
2023/01/26 12:10:40;;;;;;;22.70;7.38;;;;;;;;;;6307897;22;20097;-91
2023/01/26 12:13:39;;;;;;;22.45;7.25;;;;;;;;;;6307266;22;20083;-91
2023/01/26 12:16:44;;;;;;;19.52;6.78;;;;;;;;;;6283628;22;20027;-91
2023/01/26 12:19:44;;;;;;;24.60;7.40;;;;;;;;;;6154120;23;20097;-91
2023/01/26 12:22:21;;;;;;;21.00;6.55;;;;;;;;;;6164571;23;20032;-92
2023/01/26 12:25:33;;;;;;;16.33;6.07;;;;;;;;;;6154472;23;20072;-92
2023/01/26 12:28:20;;;;;;;18.42;6.43;;;;;;;;;;6132496;23;20021;-92
2023/01/26 12:31:11;;;;;;;21.48;6.47;;;;;;;;;;6165833;23;20068;-91
2023/01/26 12:33:40;;;;;;;20.55;6.50;;;;;;;;;;6129948;23;20027;-92
2023/01/26 12:37:05;;;;;;;18.08;6.18;;;;;;;;;;6159788;23;20032;-92
2023/01/26 12:39:43;;;;;;;18.88;5.80;;;;;;;;;;6155400;23;20005;-92
2023/01/26 12:43:04;;;;;;;20.30;7.70;;;;;;;;;;6160100;23;20021;-92
2023/01/26 12:45:56;;;;;;;21.13;6.45;;;;;;;;;;6152471;23;20021;-93
2023/01/26 12:48:46;;;;;;;21.73;5.80;;;;;;;;;;6153317;23;20017;-93
2023/01/26 12:51:53;;;;;;;17.17;6.20;;;;;;;;;;6133061;23;20024;-87
2023/01/26 12:54:44;;;;;;;21.75;6.80;;;;;;;;;;6136216;23;20401;-93
2023/01/26 12:57:16;;;;;;;21.00;7.45;;;;;;;;;;6304575;22;20425;-93
2023/01/26 12:59:50;;;;;;;19.10;6.43;;;;;;;;;;6278975;22;20007;-94
2023/01/26 13:02:47;;;;;;;23.23;7.43;;;;;;;;;;6281817;22;20040;-93
2023/01/26 13:05:40;;;;;;;18.33;5.20;;;;;;;;;;6284724;22;20029;-94
2023/01/26 13:08:41;;;;;;;19.13;6.25;;;;;;;;;;6318673;22;20015;-95
2023/01/26 13:12:17;;;;;;;21.85;7.38;;;;;;;;;;6313376;22;20019;-93
2023/01/26 13:15:46;;;;;;;19.38;6.20;;;;;;;;;;6303685;22;20044;-95
2023/01/26 13:18:58;;;;;;;18.63;5.95;;;;;;;;;;6308863;22;20010;-95
2023/01/26 13:21:53;;;;;;;18.20;5.18;;;;;;;;;;6307640;22;20029;-92
2023/01/26 13:24:23;;;;;;;18.60;5.70;;;;;;;;;;6310219;22;20473;-88
2023/01/26 13:26:53;;;;;;;14.30;5.40;;;;;;;;;;6326696;22;20019;-94
2023/01/26 13:29:31;;;;;;;15.60;5.22;;;;;;;;;;6300204;22;20097;-91
2023/01/26 13:32:22;;;;;;;11.50;4.95;;;;;;;;;;6285280;22;20027;-91
2023/01/26 13:34:58;;;;;;;14.63;5.18;;;;;;;;;;6195717;23;20021;-91
2023/01/26 13:37:33;;;;;;;12.48;4.65;;;;;;;;;;6150015;23;20539;-92
2023/01/26 13:40:14;;;;;;;12.75;4.78;;;;;;;;;;6165432;23;20051;-92
2023/01/26 13:43:09;;;;;;;13.13;4.63;;;;;;;;;;6170661;23;20052;-92
2023/01/26 13:46:11;;;;;;;14.55;4.50;;;;;;;;;;6181377;23;20036;-92
2023/01/26 13:48:43;;;;;;;;;;;;;;;;;;6170059;23;20021;-92
2023/01/26 13:51:35;;;;;;;15.45;5.15;;;;;;;;;;6169778;23;19918;-92
2023/01/26 13:54:31;;;;;;;16.58;4.38;;;;;;;;;;6180096;23;20023;-92
2023/01/26 13:57:05;;;;;;;10.05;4.20;;;;;;;;;;6122542;23;20028;-91
2023/01/26 14:00:03;;;;;;;16.73;5.78;;;;;;;;;;6170372;23;20018;-92
2023/01/26 14:02:37;;;;;;;16.38;4.68;;;;;;;;;;6141498;23;20025;-92
2023/01/26 14:05:06;;;;;;;14.85;4.85;;;;;;;;;;6121707;23;20017;-93
2023/01/26 14:07:41;;;;;;;11.00;4.45;;;;;;;;;;6155796;23;20025;-92
2023/01/26 14:10:19;;;;;;;12.77;4.60;;;;;;;;;;6145599;23;20035;-92
2023/01/26 14:12:57;;;;;;;15.50;4.45;;;;;;;;;;6285627;22;20018;-93
2023/01/26 14:15:57;;;;;;;19.77;4.63;;;;;;;;;;6323207;22;20018;-92
2023/01/26 14:18:32;;;;;;;11.95;3.95;;;;;;;;;;6297700;22;20022;-92
2023/01/26 14:21:15;;;;;;;11.25;3.70;;;;;;;;;;6332476;22;20025;-93
2023/01/26 14:23:43;;;;;;;12.40;4.15;;;;;;;;;;6295931;22;20019;-91
2023/01/26 14:26:31;;;;;;;13.68;4.70;;;;;;;;;;6275398;22;20015;-92
2023/01/26 14:31:56;;;;;;;11.93;3.80;;;;;;;;;;6296756;22;20019;-92
2023/01/26 14:34:59;;;;;;;9.35;3.72;;;;;;;;;;6303984;22;20086;-92
2023/01/26 14:37:28;;;;;;;12.55;4.28;;;;;;;;;;6297453;22;20023;-92
2023/01/26 14:40:14;;;;;;;12.35;4.45;;;;;;;;;;6274825;22;20018;-93
2023/01/26 14:42:44;;;;;;;8.77;4.13;;;;;;;;;;6310167;22;20399;-91
2023/01/26 14:45:16;;;;;;;15.05;4.63;;;;;;;;;;6309712;22;20017;-92
2023/01/26 14:47:45;;;;;;;11.57;5.10;;;;;;;;;;6308964;22;20022;-92
2023/01/26 14:50:32;;;;;;;14.52;4.70;;;;;;;;;;6308302;22;20034;-92
2023/01/26 14:53:17;;;;;;;15.93;3.70;;;;;;;;;;6333652;22;20037;-92
2023/01/26 14:55:53;;;;;;;9.20;3.58;;;;;;;;;;6274766;22;20026;-93
2023/01/26 14:58:50;;;;;;;12.68;4.82;;;;;;;;;;6303036;22;20072;-92
2023/01/26 15:01:22;;;;;;;11.43;4.32;;;;;;;;;;6274206;22;20038;-92
2023/01/26 15:04:42;;;;;;;10.40;4.70;;;;;;;;;;6323700;22;20078;-93
2023/01/26 15:07:21;;;;;;;10.75;5.15;;;;;;;;;;6307208;22;20014;-92
2023/01/26 15:10:42;;;;;;;12.35;4.55;;;;;;;;;;6299329;22;20381;-92
2023/01/26 15:13:15;;;;;;;13.30;4.63;;;;;;;;;;6274419;22;20022;-92
2023/01/26 15:16:01;;;;;;;10.73;4.82;;;;;;;;;;6298140;22;20023;-92
2023/01/26 15:19:21;;;;;;;8.82;4.25;;;;;;;;;;6272945;22;20359;-92
2023/01/26 15:21:50;;;;;;;12.65;6.10;;;;;;;;;;6241905;22;20019;-92
2023/01/26 15:24:18;;;;;;;15.85;6.53;;;;;;;;;;6293985;22;20026;-92
2023/01/26 15:26:51;;;;;;;13.05;4.82;;;;;;;;;;6244445;22;20046;-92
2023/01/26 15:29:32;;;;;;;12.85;5.30;;;;;;;;;;6269067;22;20015;-93
2023/01/26 15:32:04;;;;;;;14.18;5.88;;;;;;;;;;6278879;22;20011;-92
2023/01/26 15:34:38;;;;;;;13.98;4.70;;;;;;;;;;6278391;22;20012;-92
2023/01/26 15:37:32;;;;;;;12.43;4.63;;;;;;;;;;6243496;22;20520;-92
2023/01/26 15:40:31;;;;;;;14.02;5.70;;;;;;;;;;6274135;22;20019;-93
2023/01/26 15:43:14;;;;;;;13.77;5.05;;;;;;;;;;6267652;22;20023;-92
2023/01/26 15:46:00;;;;;;;14.55;5.50;;;;;;;;;;6243808;22;20350;-92
2023/01/26 15:48:34;;;;;;;16.23;5.95;;;;;;;;;;6306927;22;20011;-92
2023/01/26 15:51:27;;;;;;;12.65;5.25;;;;;;;;;;6274263;22;20045;-93
2023/01/26 15:54:01;;;;;;;14.63;6.20;;;;;;;;;;6269132;22;20026;-92
2023/01/26 15:56:58;;;;;;;16.00;5.82;;;;;;;;;;6312119;22;20019;-93
2023/01/26 15:59:55;;;;;;;26.48;6.60;;;;;;;;;;6252456;22;20012;-92
2023/01/26 16:02:33;;;;;;;15.63;6.07;;;;;;;;;;6270665;22;20064;-92
2023/01/26 16:05:01;;;;;;;18.67;6.25;;;;;;;;;;6243224;22;20046;-93
2023/01/26 16:07:32;;;;;;;16.17;7.20;;;;;;;;;;6279893;22;20019;-92
2023/01/26 16:10:06;;;;;;;15.43;5.55;;;;;;;;;;6246775;22;20019;-92
2023/01/26 16:12:35;;;;;;;18.75;6.90;;;;;;;;;;6245584;22;20061;-92
2023/01/26 16:15:23;;;;;;;22.98;6.85;;;;;;;;;;6293366;22;20019;-92
2023/01/26 16:17:57;;;;;;;23.20;7.75;;;;;;;;;;6305225;22;20019;-92
2023/01/26 16:20:29;;;;;;;17.63;7.60;;;;;;;;;;6299854;22;20041;-92
2023/01/26 16:23:22;;;;;;;18.17;6.75;;;;;;;;;;6244831;22;20023;-93
2023/01/26 16:26:04;;;;;;;22.05;7.60;;;;;;;;;;6314253;22;20039;-94
2023/01/26 16:28:34;;;;;;;21.67;7.30;;;;;;;;;;6290275;22;20053;-94
2023/01/26 16:31:19;;;;;;;17.55;6.43;;;;;;;;;;6270709;22;20034;-94
2023/01/26 16:34:00;;;;;;;19.90;7.10;;;;;;;;;;6253503;22;20023;-94
2023/01/26 16:37:19;;;;;;;22.38;6.95;;;;;;;;;;6276897;22;20041;-93
2023/01/26 16:40:58;;;;;;;18.83;6.53;;;;;;;;;;6232980;22;20639;-94
2023/01/26 16:44:20;;;;;;;23.08;8.30;;;;;;;;;;6266616;22;20019;-94
2023/01/26 16:52:28;;;;;;;22.13;7.25;;;;;;;;;;6072236;23;20033;-92